Forside
METAR-TAF:

METAR-TAF

Lufthavne :

Chicago Executive Airport

Wheeling / Prospect Heights, Illinois, USA

Breddekreds: 42-07-15N, længdekreds: 087-54-17W, højde: 197 m

Aktuelle vejr

Denne rapport blev lavet for 29 minutter siden, kl. 12:24 UTC
Vind 3 kt fra sydøst
Temperatur 1°C
Fugtighed 93%
Tryk 1025 hPa
Sigt: 2.0 km
Brudte skyer i en højde af 800 ft
Overskyet i en højde af 1300 ft
let sne, dis

METAR: KPWK 241224Z 13003KT 1 1/4SM -SN BR BKN008 OVC013 01/00 A3026 RMK AO2 P0000 T00110000

Tid: 06:53 (12:53 UTC)


TAF: fraværende

Vejrobservationer og prognoser fra mere end 4000 lufthavne (METAR og TAF).

De gule og røde prikker repræsenterer de meteorologiske stationer.

Flyt musen over at se navnet på stationen.

Så klik over at se vejr observationer og prognoser.

At skifte det kort: Klik på de grønne knapper med et sort kors for at zoome ind; på den grønne knap med en bindestreg for at zoome ud; eller på de grønne pile for tilstødende kort.


METAR-TAF: